sensor_id;sensor_type;location;lat;lon;timestamp;P1;durP1;ratioP1;P2;durP2;ratioP2
55090;SDS011;40985;53.180;5.800;2023-04-25T00:02:13;16.55;;;1.65;;
55090;SDS011;40985;53.180;5.800;2023-04-25T00:04:40;15.52;;;1.48;;
55090;SDS011;40985;53.180;5.800;2023-04-25T00:07:05;15.85;;;1.65;;
55090;SDS011;40985;53.180;5.800;2023-04-25T00:09:31;20.88;;;2.53;;
55090;SDS011;40985;53.180;5.800;2023-04-25T00:11:57;17.83;;;2.30;;
55090;SDS011;40985;53.180;5.800;2023-04-25T00:14:22;14.45;;;1.40;;
55090;SDS011;40985;53.180;5.800;2023-04-25T00:16:48;13.02;;;0.98;;
55090;SDS011;40985;53.180;5.800;2023-04-25T00:19:16;16.50;;;1.17;;
55090;SDS011;40985;53.180;5.800;2023-04-25T00:21:42;17.45;;;2.42;;
55090;SDS011;40985;53.180;5.800;2023-04-25T00:24:11;15.13;;;1.17;;
55090;SDS011;40985;53.180;5.800;2023-04-25T00:26:37;15.23;;;1.83;;
55090;SDS011;40985;53.180;5.800;2023-04-25T00:29:03;17.65;;;1.00;;
55090;SDS011;40985;53.180;5.800;2023-04-25T00:31:29;14.82;;;1.10;;
55090;SDS011;40985;53.180;5.800;2023-04-25T00:33:54;11.85;;;0.75;;
55090;SDS011;40985;53.180;5.800;2023-04-25T00:36:20;17.30;;;1.08;;
55090;SDS011;40985;53.180;5.800;2023-04-25T00:38:46;8.52;;;0.70;;
55090;SDS011;40985;53.180;5.800;2023-04-25T00:41:12;15.32;;;0.93;;
55090;SDS011;40985;53.180;5.800;2023-04-25T00:43:37;8.52;;;0.40;;
55090;SDS011;40985;53.180;5.800;2023-04-25T00:46:04;6.50;;;0.60;;
55090;SDS011;40985;53.180;5.800;2023-04-25T00:48:30;10.90;;;0.70;;
55090;SDS011;40985;53.180;5.800;2023-04-25T00:50:59;10.75;;;1.08;;
55090;SDS011;40985;53.180;5.800;2023-04-25T00:53:26;15.50;;;1.05;;
55090;SDS011;40985;53.180;5.800;2023-04-25T00:55:53;13.70;;;0.75;;
55090;SDS011;40985;53.180;5.800;2023-04-25T00:58:20;13.77;;;1.15;;
55090;SDS011;40985;53.180;5.800;2023-04-25T01:00:47;14.98;;;1.50;;
55090;SDS011;40985;53.180;5.800;2023-04-25T01:03:16;16.90;;;0.82;;
55090;SDS011;40985;53.180;5.800;2023-04-25T01:05:44;15.63;;;1.50;;
55090;SDS011;40985;53.180;5.800;2023-04-25T01:08:10;12.70;;;1.05;;
55090;SDS011;40985;53.180;5.800;2023-04-25T01:10:36;16.08;;;1.20;;
55090;SDS011;40985;53.180;5.800;2023-04-25T01:13:02;10.18;;;1.58;;
55090;SDS011;40985;53.180;5.800;2023-04-25T01:15:28;12.50;;;1.48;;
55090;SDS011;40985;53.180;5.800;2023-04-25T01:17:54;18.75;;;1.88;;
55090;SDS011;40985;53.180;5.800;2023-04-25T01:20:23;13.63;;;1.10;;
55090;SDS011;40985;53.180;5.800;2023-04-25T01:22:53;10.50;;;1.20;;
55090;SDS011;40985;53.180;5.800;2023-04-25T01:25:20;7.45;;;1.00;;
55090;SDS011;40985;53.180;5.800;2023-04-25T01:27:47;8.88;;;1.23;;
55090;SDS011;40985;53.180;5.800;2023-04-25T01:30:13;13.13;;;0.80;;
55090;SDS011;40985;53.180;5.800;2023-04-25T01:32:39;7.07;;;0.45;;
55090;SDS011;40985;53.180;5.800;2023-04-25T01:35:07;7.15;;;0.43;;
55090;SDS011;40985;53.180;5.800;2023-04-25T01:37:40;7.80;;;0.40;;
55090;SDS011;40985;53.180;5.800;2023-04-25T01:42:37;8.95;;;0.47;;
55090;SDS011;40985;53.180;5.800;2023-04-25T01:45:07;5.05;;;0.50;;
55090;SDS011;40985;53.180;5.800;2023-04-25T01:47:34;10.90;;;1.10;;
55090;SDS011;40985;53.180;5.800;2023-04-25T01:50:03;6.05;;;0.70;;
55090;SDS011;40985;53.180;5.800;2023-04-25T01:52:29;8.65;;;0.45;;
55090;SDS011;40985;53.180;5.800;2023-04-25T01:54:56;6.95;;;0.60;;
55090;SDS011;40985;53.180;5.800;2023-04-25T01:57:24;13.07;;;1.23;;
55090;SDS011;40985;53.180;5.800;2023-04-25T01:59:49;12.13;;;0.70;;
55090;SDS011;40985;53.180;5.800;2023-04-25T02:02:16;12.38;;;0.57;;
55090;SDS011;40985;53.180;5.800;2023-04-25T02:04:41;8.48;;;0.65;;
55090;SDS011;40985;53.180;5.800;2023-04-25T02:07:07;11.63;;;1.02;;
55090;SDS011;40985;53.180;5.800;2023-04-25T02:09:33;7.38;;;0.60;;
55090;SDS011;40985;53.180;5.800;2023-04-25T02:11:58;7.50;;;0.50;;
55090;SDS011;40985;53.180;5.800;2023-04-25T02:14:24;9.70;;;0.45;;
55090;SDS011;40985;53.180;5.800;2023-04-25T02:16:50;6.97;;;0.40;;
55090;SDS011;40985;53.180;5.800;2023-04-25T02:19:17;9.13;;;0.50;;
55090;SDS011;40985;53.180;5.800;2023-04-25T02:21:42;6.50;;;0.47;;
55090;SDS011;40985;53.180;5.800;2023-04-25T02:24:08;7.72;;;0.40;;
55090;SDS011;40985;53.180;5.800;2023-04-25T02:26:34;6.20;;;0.40;;
55090;SDS011;40985;53.180;5.800;2023-04-25T02:28:59;8.77;;;0.52;;
55090;SDS011;40985;53.180;5.800;2023-04-25T02:31:26;5.72;;;0.30;;
55090;SDS011;40985;53.180;5.800;2023-04-25T02:33:51;8.38;;;0.85;;
55090;SDS011;40985;53.180;5.800;2023-04-25T02:36:17;8.23;;;0.60;;
55090;SDS011;40985;53.180;5.800;2023-04-25T02:38:43;9.30;;;0.80;;
55090;SDS011;40985;53.180;5.800;2023-04-25T02:41:08;6.53;;;0.73;;
55090;SDS011;40985;53.180;5.800;2023-04-25T02:43:34;11.23;;;0.80;;
55090;SDS011;40985;53.180;5.800;2023-04-25T02:46:00;9.80;;;0.57;;
55090;SDS011;40985;53.180;5.800;2023-04-25T02:48:25;14.68;;;1.52;;
55090;SDS011;40985;53.180;5.800;2023-04-25T02:50:51;6.65;;;0.40;;
55090;SDS011;40985;53.180;5.800;2023-04-25T02:53:17;6.13;;;0.50;;
55090;SDS011;40985;53.180;5.800;2023-04-25T02:55:43;7.85;;;0.80;;
55090;SDS011;40985;53.180;5.800;2023-04-25T02:58:08;8.13;;;0.63;;
55090;SDS011;40985;53.180;5.800;2023-04-25T03:00:35;10.15;;;0.65;;
55090;SDS011;40985;53.180;5.800;2023-04-25T03:03:00;12.32;;;0.75;;
55090;SDS011;40985;53.180;5.800;2023-04-25T03:05:26;9.15;;;0.47;;
55090;SDS011;40985;53.180;5.800;2023-04-25T03:07:52;10.65;;;0.73;;
55090;SDS011;40985;53.180;5.800;2023-04-25T03:10:17;9.63;;;0.68;;
55090;SDS011;40985;53.180;5.800;2023-04-25T03:12:43;11.68;;;0.75;;
55090;SDS011;40985;53.180;5.800;2023-04-25T03:15:09;9.27;;;0.38;;
55090;SDS011;40985;53.180;5.800;2023-04-25T03:17:35;8.90;;;0.63;;
55090;SDS011;40985;53.180;5.800;2023-04-25T03:20:00;11.77;;;0.50;;
55090;SDS011;40985;53.180;5.800;2023-04-25T03:22:28;5.40;;;0.40;;
55090;SDS011;40985;53.180;5.800;2023-04-25T03:24:54;7.20;;;0.60;;
55090;SDS011;40985;53.180;5.800;2023-04-25T03:27:20;7.28;;;0.57;;
55090;SDS011;40985;53.180;5.800;2023-04-25T03:29:46;5.60;;;1.27;;
55090;SDS011;40985;53.180;5.800;2023-04-25T03:32:11;4.53;;;0.30;;
55090;SDS011;40985;53.180;5.800;2023-04-25T03:34:37;5.53;;;0.30;;
55090;SDS011;40985;53.180;5.800;2023-04-25T03:37:03;7.68;;;0.40;;
55090;SDS011;40985;53.180;5.800;2023-04-25T03:39:28;8.50;;;0.65;;
55090;SDS011;40985;53.180;5.800;2023-04-25T03:41:54;9.40;;;0.50;;
55090;SDS011;40985;53.180;5.800;2023-04-25T03:44:20;5.03;;;0.93;;
55090;SDS011;40985;53.180;5.800;2023-04-25T03:46:46;13.23;;;0.40;;
55090;SDS011;40985;53.180;5.800;2023-04-25T03:49:11;10.55;;;1.13;;
55090;SDS011;40985;53.180;5.800;2023-04-25T03:51:38;11.80;;;0.88;;
55090;SDS011;40985;53.180;5.800;2023-04-25T03:54:03;11.73;;;0.98;;
55090;SDS011;40985;53.180;5.800;2023-04-25T03:56:29;8.68;;;0.40;;
55090;SDS011;40985;53.180;5.800;2023-04-25T03:58:55;8.85;;;0.38;;
55090;SDS011;40985;53.180;5.800;2023-04-25T04:01:21;10.63;;;0.40;;
55090;SDS011;40985;53.180;5.800;2023-04-25T04:03:46;7.22;;;0.95;;
55090;SDS011;40985;53.180;5.800;2023-04-25T04:06:12;10.10;;;0.45;;
55090;SDS011;40985;53.180;5.800;2023-04-25T04:08:38;11.02;;;1.02;;
55090;SDS011;40985;53.180;5.800;2023-04-25T04:11:03;7.50;;;0.40;;
55090;SDS011;40985;53.180;5.800;2023-04-25T04:13:30;8.32;;;0.40;;
55090;SDS011;40985;53.180;5.800;2023-04-25T04:15:56;6.22;;;0.55;;
55090;SDS011;40985;53.180;5.800;2023-04-25T04:18:23;7.30;;;0.90;;
55090;SDS011;40985;53.180;5.800;2023-04-25T04:20:49;7.75;;;0.40;;
55090;SDS011;40985;53.180;5.800;2023-04-25T04:23:14;8.80;;;0.50;;
55090;SDS011;40985;53.180;5.800;2023-04-25T04:25:40;6.13;;;0.60;;
55090;SDS011;40985;53.180;5.800;2023-04-25T04:28:06;8.90;;;0.65;;
55090;SDS011;40985;53.180;5.800;2023-04-25T04:30:32;6.80;;;0.50;;
55090;SDS011;40985;53.180;5.800;2023-04-25T04:33:01;7.15;;;0.30;;
55090;SDS011;40985;53.180;5.800;2023-04-25T04:35:28;5.63;;;0.40;;
55090;SDS011;40985;53.180;5.800;2023-04-25T04:37:54;7.25;;;0.30;;
55090;SDS011;40985;53.180;5.800;2023-04-25T04:40:20;9.85;;;0.50;;
55090;SDS011;40985;53.180;5.800;2023-04-25T04:42:46;8.80;;;0.40;;
55090;SDS011;40985;53.180;5.800;2023-04-25T04:45:13;6.43;;;0.30;;
55090;SDS011;40985;53.180;5.800;2023-04-25T04:47:39;5.32;;;0.57;;
55090;SDS011;40985;53.180;5.800;2023-04-25T04:50:09;4.43;;;0.50;;
55090;SDS011;40985;53.180;5.800;2023-04-25T04:52:35;3.85;;;0.30;;
55090;SDS011;40985;53.180;5.800;2023-04-25T04:55:03;9.15;;;0.30;;
55090;SDS011;40985;53.180;5.800;2023-04-25T04:57:29;5.65;;;0.68;;
55090;SDS011;40985;53.180;5.800;2023-04-25T04:59:56;3.78;;;0.40;;
55090;SDS011;40985;53.180;5.800;2023-04-25T05:02:22;5.80;;;0.55;;
55090;SDS011;40985;53.180;5.800;2023-04-25T05:04:47;8.20;;;0.30;;
55090;SDS011;40985;53.180;5.800;2023-04-25T05:07:13;3.75;;;0.20;;
55090;SDS011;40985;53.180;5.800;2023-04-25T05:09:39;3.20;;;0.77;;
55090;SDS011;40985;53.180;5.800;2023-04-25T05:12:05;4.25;;;0.30;;
55090;SDS011;40985;53.180;5.800;2023-04-25T05:14:30;5.45;;;0.40;;
55090;SDS011;40985;53.180;5.800;2023-04-25T05:16:56;5.28;;;0.40;;
55090;SDS011;40985;53.180;5.800;2023-04-25T05:19:23;5.40;;;0.45;;
55090;SDS011;40985;53.180;5.800;2023-04-25T05:21:49;4.05;;;0.20;;
55090;SDS011;40985;53.180;5.800;2023-04-25T05:24:14;12.23;;;0.75;;
55090;SDS011;40985;53.180;5.800;2023-04-25T05:26:40;4.57;;;0.32;;
55090;SDS011;40985;53.180;5.800;2023-04-25T05:29:06;7.25;;;0.30;;
55090;SDS011;40985;53.180;5.800;2023-04-25T05:31:32;8.55;;;0.40;;
55090;SDS011;40985;53.180;5.800;2023-04-25T05:33:58;9.32;;;0.50;;
55090;SDS011;40985;53.180;5.800;2023-04-25T05:36:23;8.55;;;0.40;;
55090;SDS011;40985;53.180;5.800;2023-04-25T05:38:49;7.03;;;0.40;;
55090;SDS011;40985;53.180;5.800;2023-04-25T05:41:15;8.27;;;0.40;;
55090;SDS011;40985;53.180;5.800;2023-04-25T05:43:41;5.97;;;0.30;;
55090;SDS011;40985;53.180;5.800;2023-04-25T05:46:11;4.07;;;0.40;;
55090;SDS011;40985;53.180;5.800;2023-04-25T05:48:37;5.50;;;0.38;;
55090;SDS011;40985;53.180;5.800;2023-04-25T05:51:03;4.63;;;0.30;;
55090;SDS011;40985;53.180;5.800;2023-04-25T05:53:29;5.65;;;0.28;;
55090;SDS011;40985;53.180;5.800;2023-04-25T05:55:54;4.93;;;0.20;;
55090;SDS011;40985;53.180;5.800;2023-04-25T05:58:20;4.22;;;0.30;;
55090;SDS011;40985;53.180;5.800;2023-04-25T06:00:46;5.40;;;0.82;;
55090;SDS011;40985;53.180;5.800;2023-04-25T06:03:12;5.82;;;0.30;;
55090;SDS011;40985;53.180;5.800;2023-04-25T06:05:43;5.00;;;0.20;;
55090;SDS011;40985;53.180;5.800;2023-04-25T06:08:09;4.22;;;0.77;;
55090;SDS011;40985;53.180;5.800;2023-04-25T06:10:36;3.85;;;0.20;;
55090;SDS011;40985;53.180;5.800;2023-04-25T06:13:02;5.10;;;0.60;;
55090;SDS011;40985;53.180;5.800;2023-04-25T06:15:28;5.32;;;0.20;;
55090;SDS011;40985;53.180;5.800;2023-04-25T06:17:54;6.03;;;0.60;;
55090;SDS011;40985;53.180;5.800;2023-04-25T06:20:20;4.97;;;0.30;;
55090;SDS011;40985;53.180;5.800;2023-04-25T06:22:48;5.55;;;0.32;;
55090;SDS011;40985;53.180;5.800;2023-04-25T06:25:15;7.15;;;0.30;;
55090;SDS011;40985;53.180;5.800;2023-04-25T06:27:41;6.28;;;0.22;;
55090;SDS011;40985;53.180;5.800;2023-04-25T06:30:06;4.68;;;0.30;;
55090;SDS011;40985;53.180;5.800;2023-04-25T06:32:33;7.78;;;0.32;;
55090;SDS011;40985;53.180;5.800;2023-04-25T06:34:59;6.05;;;0.40;;
55090;SDS011;40985;53.180;5.800;2023-04-25T06:37:25;5.07;;;0.40;;
55090;SDS011;40985;53.180;5.800;2023-04-25T06:39:51;8.73;;;0.60;;
55090;SDS011;40985;53.180;5.800;2023-04-25T06:42:17;12.07;;;1.08;;
55090;SDS011;40985;53.180;5.800;2023-04-25T06:44:42;9.90;;;0.50;;
55090;SDS011;40985;53.180;5.800;2023-04-25T06:47:08;5.68;;;0.30;;
55090;SDS011;40985;53.180;5.800;2023-04-25T06:49:34;8.07;;;0.52;;
55090;SDS011;40985;53.180;5.800;2023-04-25T06:51:59;6.65;;;0.60;;
55090;SDS011;40985;53.180;5.800;2023-04-25T06:54:25;5.57;;;0.50;;
55090;SDS011;40985;53.180;5.800;2023-04-25T06:56:53;7.30;;;0.60;;
55090;SDS011;40985;53.180;5.800;2023-04-25T06:59:19;9.15;;;0.50;;
55090;SDS011;40985;53.180;5.800;2023-04-25T07:01:45;5.22;;;0.30;;
55090;SDS011;40985;53.180;5.800;2023-04-25T07:04:10;8.15;;;0.60;;
55090;SDS011;40985;53.180;5.800;2023-04-25T07:06:36;8.32;;;0.40;;
55090;SDS011;40985;53.180;5.800;2023-04-25T07:09:07;9.20;;;0.40;;
55090;SDS011;40985;53.180;5.800;2023-04-25T07:11:36;10.65;;;0.68;;
55090;SDS011;40985;53.180;5.800;2023-04-25T07:14:02;10.20;;;0.40;;
55090;SDS011;40985;53.180;5.800;2023-04-25T07:16:28;6.57;;;0.35;;
55090;SDS011;40985;53.180;5.800;2023-04-25T07:18:54;5.30;;;0.30;;
55090;SDS011;40985;53.180;5.800;2023-04-25T07:21:20;4.78;;;0.60;;
55090;SDS011;40985;53.180;5.800;2023-04-25T07:23:46;5.65;;;0.40;;
55090;SDS011;40985;53.180;5.800;2023-04-25T07:26:11;4.28;;;0.30;;
55090;SDS011;40985;53.180;5.800;2023-04-25T07:28:37;8.10;;;0.82;;
55090;SDS011;40985;53.180;5.800;2023-04-25T07:31:03;14.20;;;1.13;;
55090;SDS011;40985;53.180;5.800;2023-04-25T07:33:29;12.25;;;0.47;;
55090;SDS011;40985;53.180;5.800;2023-04-25T07:35:54;8.85;;;0.35;;
55090;SDS011;40985;53.180;5.800;2023-04-25T07:38:20;5.40;;;0.40;;
55090;SDS011;40985;53.180;5.800;2023-04-25T07:40:47;5.30;;;0.47;;
55090;SDS011;40985;53.180;5.800;2023-04-25T07:43:13;9.40;;;0.30;;
55090;SDS011;40985;53.180;5.800;2023-04-25T07:45:41;9.00;;;0.50;;
55090;SDS011;40985;53.180;5.800;2023-04-25T07:48:08;6.93;;;0.52;;
55090;SDS011;40985;53.180;5.800;2023-04-25T07:50:34;11.45;;;0.52;;
55090;SDS011;40985;53.180;5.800;2023-04-25T07:52:59;9.10;;;1.40;;
55090;SDS011;40985;53.180;5.800;2023-04-25T07:55:25;8.45;;;1.15;;
55090;SDS011;40985;53.180;5.800;2023-04-25T07:57:51;8.05;;;0.43;;
55090;SDS011;40985;53.180;5.800;2023-04-25T08:00:17;7.25;;;0.50;;
55090;SDS011;40985;53.180;5.800;2023-04-25T08:02:42;5.88;;;0.30;;
55090;SDS011;40985;53.180;5.800;2023-04-25T08:05:08;5.55;;;0.30;;
55090;SDS011;40985;53.180;5.800;2023-04-25T08:07:37;6.85;;;0.35;;
55090;SDS011;40985;53.180;5.800;2023-04-25T08:10:04;6.60;;;0.43;;
55090;SDS011;40985;53.180;5.800;2023-04-25T08:12:31;6.25;;;1.05;;
55090;SDS011;40985;53.180;5.800;2023-04-25T08:14:57;8.70;;;0.60;;
55090;SDS011;40985;53.180;5.800;2023-04-25T08:17:23;7.10;;;0.50;;
55090;SDS011;40985;53.180;5.800;2023-04-25T08:19:49;8.10;;;0.45;;
55090;SDS011;40985;53.180;5.800;2023-04-25T08:22:14;8.07;;;1.00;;
55090;SDS011;40985;53.180;5.800;2023-04-25T08:24:41;6.10;;;0.30;;
55090;SDS011;40985;53.180;5.800;2023-04-25T08:27:07;8.95;;;0.70;;
55090;SDS011;40985;53.180;5.800;2023-04-25T08:29:33;7.57;;;0.40;;
55090;SDS011;40985;53.180;5.800;2023-04-25T08:31:59;5.10;;;0.40;;
55090;SDS011;40985;53.180;5.800;2023-04-25T08:34:25;7.07;;;0.50;;
55090;SDS011;40985;53.180;5.800;2023-04-25T08:36:51;8.60;;;0.68;;
55090;SDS011;40985;53.180;5.800;2023-04-25T08:39:17;6.95;;;0.50;;
55090;SDS011;40985;53.180;5.800;2023-04-25T08:41:43;8.50;;;0.60;;
55090;SDS011;40985;53.180;5.800;2023-04-25T08:44:10;7.53;;;0.40;;
55090;SDS011;40985;53.180;5.800;2023-04-25T08:46:40;9.75;;;0.68;;
55090;SDS011;40985;53.180;5.800;2023-04-25T08:49:06;5.18;;;0.40;;
55090;SDS011;40985;53.180;5.800;2023-04-25T08:51:34;10.25;;;0.40;;
55090;SDS011;40985;53.180;5.800;2023-04-25T08:54:08;9.90;;;0.75;;
55090;SDS011;40985;53.180;5.800;2023-04-25T08:56:37;6.68;;;0.40;;
55090;SDS011;40985;53.180;5.800;2023-04-25T08:59:03;3.83;;;0.30;;
55090;SDS011;40985;53.180;5.800;2023-04-25T09:01:32;6.70;;;0.30;;
55090;SDS011;40985;53.180;5.800;2023-04-25T09:03:59;4.57;;;0.22;;
55090;SDS011;40985;53.180;5.800;2023-04-25T09:06:25;7.63;;;0.52;;
55090;SDS011;40985;53.180;5.800;2023-04-25T09:08:52;6.30;;;0.40;;
55090;SDS011;40985;53.180;5.800;2023-04-25T09:11:18;7.65;;;0.40;;
55090;SDS011;40985;53.180;5.800;2023-04-25T09:13:44;8.23;;;0.60;;
55090;SDS011;40985;53.180;5.800;2023-04-25T09:16:11;2.50;;;0.30;;
55090;SDS011;40985;53.180;5.800;2023-04-25T09:18:36;7.72;;;0.32;;
55090;SDS011;40985;53.180;5.800;2023-04-25T09:21:06;5.85;;;0.52;;
55090;SDS011;40985;53.180;5.800;2023-04-25T09:23:48;6.63;;;0.52;;
55090;SDS011;40985;53.180;5.800;2023-04-25T09:26:17;3.63;;;0.30;;
55090;SDS011;40985;53.180;5.800;2023-04-25T09:28:44;6.78;;;0.20;;
55090;SDS011;40985;53.180;5.800;2023-04-25T09:31:11;8.82;;;1.00;;
55090;SDS011;40985;53.180;5.800;2023-04-25T09:33:37;4.63;;;0.20;;
55090;SDS011;40985;53.180;5.800;2023-04-25T09:38:45;2.60;;;0.20;;
55090;SDS011;40985;53.180;5.800;2023-04-25T09:41:11;5.35;;;0.30;;
55090;SDS011;40985;53.180;5.800;2023-04-25T09:43:38;4.57;;;0.40;;
55090;SDS011;40985;53.180;5.800;2023-04-25T09:46:08;2.95;;;0.20;;
55090;SDS011;40985;53.180;5.800;2023-04-25T09:48:36;4.35;;;0.40;;
55090;SDS011;40985;53.180;5.800;2023-04-25T09:51:09;5.45;;;0.52;;
55090;SDS011;40985;53.180;5.800;2023-04-25T09:53:36;5.57;;;0.30;;
55090;SDS011;40985;53.180;5.800;2023-04-25T09:56:04;8.38;;;0.63;;
55090;SDS011;40985;53.180;5.800;2023-04-25T09:58:32;2.58;;;0.20;;
55090;SDS011;40985;53.180;5.800;2023-04-25T10:01:03;2.20;;;0.20;;
55090;SDS011;40985;53.180;5.800;2023-04-25T10:03:31;3.90;;;0.20;;
55090;SDS011;40985;53.180;5.800;2023-04-25T10:06:01;6.47;;;0.43;;
55090;SDS011;40985;53.180;5.800;2023-04-25T10:08:30;4.40;;;0.40;;
55090;SDS011;40985;53.180;5.800;2023-04-25T10:11:02;4.03;;;0.20;;
55090;SDS011;40985;53.180;5.800;2023-04-25T10:13:30;5.05;;;0.55;;
55090;SDS011;40985;53.180;5.800;2023-04-25T10:15:57;11.18;;;0.30;;
55090;SDS011;40985;53.180;5.800;2023-04-25T10:18:27;5.65;;;0.30;;
55090;SDS011;40985;53.180;5.800;2023-04-25T10:20:54;6.05;;;0.50;;
55090;SDS011;40985;53.180;5.800;2023-04-25T10:23:22;5.45;;;0.40;;
55090;SDS011;40985;53.180;5.800;2023-04-25T10:25:49;10.25;;;1.00;;
55090;SDS011;40985;53.180;5.800;2023-04-25T10:28:16;4.78;;;0.30;;
55090;SDS011;40985;53.180;5.800;2023-04-25T10:31:01;6.88;;;0.30;;
55090;SDS011;40985;53.180;5.800;2023-04-25T10:33:34;5.97;;;0.40;;
55090;SDS011;40985;53.180;5.800;2023-04-25T10:36:08;6.70;;;0.75;;
55090;SDS011;40985;53.180;5.800;2023-04-25T10:38:41;2.42;;;0.20;;
55090;SDS011;40985;53.180;5.800;2023-04-25T10:41:08;6.90;;;0.40;;
55090;SDS011;40985;53.180;5.800;2023-04-25T10:43:44;8.20;;;0.85;;
55090;SDS011;40985;53.180;5.800;2023-04-25T10:46:22;6.40;;;1.20;;
55090;SDS011;40985;53.180;5.800;2023-04-25T10:48:52;4.85;;;0.43;;
55090;SDS011;40985;53.180;5.800;2023-04-25T10:51:26;9.13;;;0.50;;
55090;SDS011;40985;53.180;5.800;2023-04-25T10:54:05;5.43;;;0.30;;
55090;SDS011;40985;53.180;5.800;2023-04-25T10:59:06;5.32;;;0.20;;
55090;SDS011;40985;53.180;5.800;2023-04-25T11:01:43;5.47;;;0.20;;
55090;SDS011;40985;53.180;5.800;2023-04-25T11:09:39;5.68;;;1.02;;
55090;SDS011;40985;53.180;5.800;2023-04-25T11:12:07;3.95;;;0.22;;
55090;SDS011;40985;53.180;5.800;2023-04-25T11:14:33;2.25;;;0.25;;
55090;SDS011;40985;53.180;5.800;2023-04-25T11:16:59;4.28;;;0.30;;
55090;SDS011;40985;53.180;5.800;2023-04-25T11:19:27;6.65;;;0.40;;
55090;SDS011;40985;53.180;5.800;2023-04-25T11:22:00;7.38;;;0.30;;
55090;SDS011;40985;53.180;5.800;2023-04-25T11:24:31;8.52;;;0.63;;
55090;SDS011;40985;53.180;5.800;2023-04-25T11:26:58;6.30;;;0.30;;
55090;SDS011;40985;53.180;5.800;2023-04-25T11:29:26;6.20;;;0.50;;
55090;SDS011;40985;53.180;5.800;2023-04-25T11:31:52;8.43;;;0.32;;
55090;SDS011;40985;53.180;5.800;2023-04-25T11:34:20;4.10;;;0.40;;
55090;SDS011;40985;53.180;5.800;2023-04-25T11:36:47;6.97;;;0.47;;
55090;SDS011;40985;53.180;5.800;2023-04-25T11:39:12;7.97;;;0.45;;
55090;SDS011;40985;53.180;5.800;2023-04-25T11:41:40;3.35;;;0.30;;
55090;SDS011;40985;53.180;5.800;2023-04-25T11:44:06;2.95;;;0.22;;
55090;SDS011;40985;53.180;5.800;2023-04-25T11:46:35;6.45;;;0.30;;
55090;SDS011;40985;53.180;5.800;2023-04-25T11:49:01;7.57;;;0.52;;
55090;SDS011;40985;53.180;5.800;2023-04-25T11:51:27;5.00;;;0.52;;
55090;SDS011;40985;53.180;5.800;2023-04-25T11:53:53;9.60;;;0.40;;
55090;SDS011;40985;53.180;5.800;2023-04-25T11:56:19;7.22;;;0.45;;
55090;SDS011;40985;53.180;5.800;2023-04-25T11:58:59;5.85;;;0.50;;
55090;SDS011;40985;53.180;5.800;2023-04-25T12:03:55;6.22;;;0.60;;
55090;SDS011;40985;53.180;5.800;2023-04-25T12:06:25;5.90;;;0.30;;
55090;SDS011;40985;53.180;5.800;2023-04-25T12:09:04;6.07;;;0.50;;
55090;SDS011;40985;53.180;5.800;2023-04-25T12:11:40;6.85;;;0.30;;
55090;SDS011;40985;53.180;5.800;2023-04-25T12:14:32;9.75;;;0.40;;
55090;SDS011;40985;53.180;5.800;2023-04-25T12:17:00;2.85;;;0.40;;
55090;SDS011;40985;53.180;5.800;2023-04-25T12:19:34;3.75;;;0.20;;
55090;SDS011;40985;53.180;5.800;2023-04-25T12:22:01;5.20;;;0.22;;
55090;SDS011;40985;53.180;5.800;2023-04-25T12:24:28;4.95;;;0.77;;
55090;SDS011;40985;53.180;5.800;2023-04-25T12:26:58;4.65;;;0.30;;
55090;SDS011;40985;53.180;5.800;2023-04-25T12:29:27;4.30;;;0.20;;
55090;SDS011;40985;53.180;5.800;2023-04-25T12:31:54;5.60;;;0.32;;
55090;SDS011;40985;53.180;5.800;2023-04-25T12:34:20;7.40;;;0.40;;
55090;SDS011;40985;53.180;5.800;2023-04-25T12:36:47;5.50;;;0.20;;
55090;SDS011;40985;53.180;5.800;2023-04-25T12:39:19;5.82;;;0.28;;
55090;SDS011;40985;53.180;5.800;2023-04-25T12:41:47;8.05;;;0.73;;
55090;SDS011;40985;53.180;5.800;2023-04-25T12:44:13;6.45;;;0.70;;
55090;SDS011;40985;53.180;5.800;2023-04-25T12:46:39;3.17;;;0.30;;
55090;SDS011;40985;53.180;5.800;2023-04-25T12:49:06;7.15;;;0.80;;
55090;SDS011;40985;53.180;5.800;2023-04-25T12:51:33;7.57;;;0.38;;
55090;SDS011;40985;53.180;5.800;2023-04-25T12:54:00;5.63;;;0.30;;
55090;SDS011;40985;53.180;5.800;2023-04-25T12:56:29;3.00;;;0.30;;
55090;SDS011;40985;53.180;5.800;2023-04-25T12:58:55;7.32;;;0.30;;
55090;SDS011;40985;53.180;5.800;2023-04-25T13:01:21;2.95;;;0.20;;
55090;SDS011;40985;53.180;5.800;2023-04-25T13:03:47;7.97;;;0.73;;
55090;SDS011;40985;53.180;5.800;2023-04-25T13:06:14;10.05;;;0.40;;
55090;SDS011;40985;53.180;5.800;2023-04-25T13:08:40;6.75;;;0.35;;
55090;SDS011;40985;53.180;5.800;2023-04-25T13:11:07;5.43;;;0.30;;
55090;SDS011;40985;53.180;5.800;2023-04-25T13:13:32;6.20;;;0.60;;
55090;SDS011;40985;53.180;5.800;2023-04-25T13:16:00;5.35;;;0.30;;
55090;SDS011;40985;53.180;5.800;2023-04-25T13:18:29;4.82;;;0.30;;
55090;SDS011;40985;53.180;5.800;2023-04-25T13:20:56;7.82;;;0.65;;
55090;SDS011;40985;53.180;5.800;2023-04-25T13:23:23;7.75;;;0.55;;
55090;SDS011;40985;53.180;5.800;2023-04-25T13:25:49;6.55;;;0.30;;
55090;SDS011;40985;53.180;5.800;2023-04-25T13:28:15;5.90;;;0.43;;
55090;SDS011;40985;53.180;5.800;2023-04-25T13:30:41;2.60;;;0.32;;
55090;SDS011;40985;53.180;5.800;2023-04-25T13:33:07;5.50;;;0.35;;
55090;SDS011;40985;53.180;5.800;2023-04-25T13:35:34;5.90;;;0.20;;
55090;SDS011;40985;53.180;5.800;2023-04-25T13:38:01;4.32;;;0.45;;
55090;SDS011;40985;53.180;5.800;2023-04-25T13:40:27;9.25;;;0.38;;
55090;SDS011;40985;53.180;5.800;2023-04-25T13:42:54;4.88;;;0.40;;
55090;SDS011;40985;53.180;5.800;2023-04-25T13:45:20;4.55;;;0.40;;
55090;SDS011;40985;53.180;5.800;2023-04-25T13:47:47;7.00;;;0.30;;
55090;SDS011;40985;53.180;5.800;2023-04-25T13:50:12;4.07;;;0.20;;
55090;SDS011;40985;53.180;5.800;2023-04-25T13:52:39;5.20;;;0.35;;
55090;SDS011;40985;53.180;5.800;2023-04-25T13:55:05;3.60;;;0.32;;
55090;SDS011;40985;53.180;5.800;2023-04-25T13:57:32;6.30;;;0.35;;
55090;SDS011;40985;53.180;5.800;2023-04-25T13:59:58;8.95;;;0.70;;
55090;SDS011;40985;53.180;5.800;2023-04-25T14:02:24;4.20;;;0.30;;
55090;SDS011;40985;53.180;5.800;2023-04-25T14:04:51;4.13;;;0.70;;
55090;SDS011;40985;53.180;5.800;2023-04-25T14:07:16;5.20;;;0.30;;
55090;SDS011;40985;53.180;5.800;2023-04-25T14:09:44;5.50;;;0.30;;
55090;SDS011;40985;53.180;5.800;2023-04-25T14:12:10;5.38;;;0.35;;
55090;SDS011;40985;53.180;5.800;2023-04-25T14:14:36;3.80;;;0.30;;
55090;SDS011;40985;53.180;5.800;2023-04-25T14:17:02;6.85;;;0.60;;
55090;SDS011;40985;53.180;5.800;2023-04-25T14:19:28;6.70;;;0.70;;
55090;SDS011;40985;53.180;5.800;2023-04-25T14:21:54;9.70;;;0.60;;
55090;SDS011;40985;53.180;5.800;2023-04-25T14:24:20;9.68;;;0.65;;
55090;SDS011;40985;53.180;5.800;2023-04-25T14:26:46;8.20;;;0.45;;
55090;SDS011;40985;53.180;5.800;2023-04-25T14:29:12;10.57;;;0.85;;
55090;SDS011;40985;53.180;5.800;2023-04-25T14:31:38;8.82;;;0.50;;
55090;SDS011;40985;53.180;5.800;2023-04-25T14:34:05;3.88;;;0.30;;
55090;SDS011;40985;53.180;5.800;2023-04-25T14:36:31;6.18;;;0.63;;
55090;SDS011;40985;53.180;5.800;2023-04-25T14:38:57;4.40;;;0.68;;
55090;SDS011;40985;53.180;5.800;2023-04-25T14:41:26;5.28;;;0.32;;
55090;SDS011;40985;53.180;5.800;2023-04-25T14:43:52;3.50;;;0.20;;
55090;SDS011;40985;53.180;5.800;2023-04-25T14:46:18;5.60;;;0.93;;
55090;SDS011;40985;53.180;5.800;2023-04-25T14:48:45;9.98;;;0.50;;
55090;SDS011;40985;53.180;5.800;2023-04-25T14:51:12;7.70;;;0.30;;
55090;SDS011;40985;53.180;5.800;2023-04-25T14:53:37;5.88;;;0.30;;
55090;SDS011;40985;53.180;5.800;2023-04-25T14:56:04;6.57;;;0.40;;
55090;SDS011;40985;53.180;5.800;2023-04-25T14:58:30;5.00;;;0.30;;
55090;SDS011;40985;53.180;5.800;2023-04-25T15:00:56;5.72;;;0.40;;